Time;durP1;ratioP1;P1;durP2;ratioP2;P2;SDS_P1;SDS_P2;PMS_P1;PMS_P2;Temp;Humidity;BMP_temperature;BMP_pressure;BME280_temperature;BME280_humidity;BME280_pressure;Samples;Min_cycle;Max_cycle;Signal;HPM_P1;HPM_P2
2022/08/31 00:04:09;;;;;;;2.13;1.63;;;19.20;99.90;;;;;;5119344;28;20031;-60
2022/08/31 00:06:35;;;;;;;5.88;1.80;;;19.20;99.90;;;;;;5119341;28;20088;-61
2022/08/31 00:09:03;;;;;;;3.17;1.80;;;19.10;99.90;;;;;;5119209;28;20066;-60
2022/08/31 00:11:30;;;;;;;3.00;1.67;;;19.00;99.90;;;;;;5118468;28;20028;-59
2022/08/31 00:14:02;;;;;;;3.42;1.75;;;19.00;99.90;;;;;;5119045;28;20272;-60
2022/08/31 00:16:30;;;;;;;3.78;1.90;;;19.00;99.90;;;;;;5119155;28;20024;-59
2022/08/31 00:18:56;;;;;;;2.22;1.70;;;18.90;99.90;;;;;;5119348;28;20035;-59
2022/08/31 00:21:25;;;;;;;2.30;1.63;;;18.90;99.90;;;;;;5117974;28;20409;-60
2022/08/31 00:23:52;;;;;;;3.03;1.95;;;18.90;99.90;;;;;;5118836;28;20111;-60
2022/08/31 00:26:19;;;;;;;2.38;2.10;;;18.90;99.90;;;;;;5118201;28;20040;-60
2022/08/31 00:28:45;;;;;;;2.90;1.80;;;18.90;99.90;;;;;;5118331;28;20034;-61
2022/08/31 00:31:11;;;;;;;2.05;1.77;;;19.00;99.90;;;;;;5118809;28;20115;-60
2022/08/31 00:33:38;;;;;;;2.25;1.70;;;19.10;99.90;;;;;;5118682;28;20564;-60
2022/08/31 00:36:11;;;;;;;4.88;1.65;;;19.20;99.90;;;;;;5100900;28;20034;-60
2022/08/31 00:38:38;;;;;;;3.13;1.75;;;19.20;99.90;;;;;;5117840;28;20099;-60
2022/08/31 00:41:04;;;;;;;3.80;2.10;;;19.20;99.90;;;;;;5119147;28;20019;-59
2022/08/31 00:43:39;;;;;;;3.13;2.03;;;19.20;99.90;;;;;;5118496;28;20020;-60
2022/08/31 00:46:06;;;;;;;2.80;1.90;;;19.30;99.90;;;;;;5118462;28;20164;-60
2022/08/31 00:48:37;;;;;;;3.28;1.95;;;19.20;99.90;;;;;;5118334;28;20023;-60
2022/08/31 00:51:03;;;;;;;3.70;1.95;;;19.10;99.90;;;;;;5118974;28;20040;-60
2022/08/31 00:53:29;;;;;;;3.70;1.75;;;19.00;99.90;;;;;;5118484;28;20124;-60
2022/08/31 00:55:55;;;;;;;3.15;1.88;;;18.90;99.90;;;;;;5117529;28;20031;-60
2022/08/31 00:58:22;;;;;;;2.55;1.58;;;18.90;99.90;;;;;;5117981;28;20044;-60
2022/08/31 01:00:48;;;;;;;2.40;2.20;;;18.80;99.90;;;;;;5118222;28;20032;-60
2022/08/31 01:03:15;;;;;;;1.92;1.73;;;18.70;99.90;;;;;;5118248;28;20036;-61
2022/08/31 01:05:41;;;;;;;2.10;1.85;;;18.70;99.90;;;;;;5118383;28;20290;-61
2022/08/31 01:08:07;;;;;;;2.30;1.80;;;18.50;99.90;;;;;;5118418;28;20027;-60
2022/08/31 01:10:40;;;;;;;3.90;2.25;;;18.60;99.90;;;;;;5118042;28;20035;-60
2022/08/31 01:13:07;;;;;;;2.30;1.95;;;18.60;99.90;;;;;;5100345;28;20353;-59
2022/08/31 01:15:35;;;;;;;1.95;1.85;;;18.60;99.90;;;;;;5117933;28;20034;-59
2022/08/31 01:18:03;;;;;;;4.20;2.25;;;18.50;99.90;;;;;;5117083;28;20039;-60
2022/08/31 01:20:35;;;;;;;3.80;2.20;;;18.50;99.90;;;;;;5118130;28;20346;-60
2022/08/31 01:23:07;;;;;;;3.63;2.00;;;18.50;99.90;;;;;;5117924;28;20019;-60
2022/08/31 01:25:35;;;;;;;3.43;2.43;;;18.40;99.90;;;;;;5117952;28;20028;-60
2022/08/31 01:28:04;;;;;;;3.17;2.00;;;18.30;99.90;;;;;;5118343;28;20031;-60
2022/08/31 01:30:31;;;;;;;2.72;2.20;;;18.30;99.90;;;;;;5117701;28;20027;-60
2022/08/31 01:32:56;;;;;;;6.25;2.40;;;18.30;99.90;;;;;;5117509;28;20035;-60
2022/08/31 01:35:22;;;;;;;2.38;2.17;;;18.30;99.90;;;;;;5117579;28;20091;-61
2022/08/31 01:37:49;;;;;;;5.78;2.13;;;18.20;99.90;;;;;;5117404;28;20035;-60
2022/08/31 01:40:15;;;;;;;2.67;2.22;;;18.20;99.90;;;;;;5099797;28;20046;-60
2022/08/31 01:42:43;;;;;;;3.20;2.25;;;18.10;99.90;;;;;;5117819;28;20048;-60
2022/08/31 01:45:10;;;;;;;2.78;2.22;;;18.10;99.90;;;;;;5099721;28;20484;-60
2022/08/31 01:47:38;;;;;;;2.60;2.30;;;17.90;99.90;;;;;;5117391;28;20106;-60
2022/08/31 01:50:05;;;;;;;4.78;2.08;;;17.80;99.90;;;;;;5116612;28;20055;-60
2022/08/31 01:52:32;;;;;;;3.78;2.35;;;17.80;99.90;;;;;;5116664;28;20104;-60
2022/08/31 01:55:02;;;;;;;3.88;2.47;;;17.90;99.90;;;;;;5116938;28;20054;-60
2022/08/31 01:57:28;;;;;;;3.90;2.35;;;17.90;99.90;;;;;;5116335;28;20031;-61
2022/08/31 02:00:13;;;;;;;2.67;2.47;;;17.90;99.90;;;;;;5117336;28;20082;-60
2022/08/31 02:02:43;;;;;;;4.35;2.50;;;17.80;99.90;;;;;;5116531;28;20321;-60
2022/08/31 02:05:09;;;;;;;5.15;2.20;;;17.90;99.90;;;;;;5116477;28;20088;-60
2022/08/31 02:07:35;;;;;;;2.83;2.33;;;17.90;99.90;;;;;;5116663;28;20110;-60
2022/08/31 02:10:01;;;;;;;3.90;2.40;;;17.90;99.90;;;;;;5116441;28;20036;-59
2022/08/31 02:12:26;;;;;;;3.35;2.20;;;17.90;99.90;;;;;;5116517;28;20295;-59
2022/08/31 02:14:52;;;;;;;3.30;2.50;;;17.70;99.90;;;;;;5117408;28;20071;-59
2022/08/31 02:17:18;;;;;;;2.53;2.20;;;17.70;99.90;;;;;;5117074;28;20020;-60
2022/08/31 02:19:44;;;;;;;2.88;2.60;;;17.70;99.90;;;;;;5116369;28;20052;-59
2022/08/31 02:22:10;;;;;;;4.68;2.72;;;17.70;99.90;;;;;;5116445;28;20417;-59
2022/08/31 02:24:36;;;;;;;6.03;2.33;;;17.70;99.90;;;;;;5117095;28;20032;-59
2022/08/31 02:27:01;;;;;;;4.40;2.72;;;17.70;99.90;;;;;;5117161;28;20023;-59
2022/08/31 02:29:27;;;;;;;4.45;2.10;;;17.70;99.90;;;;;;5082582;28;20044;-59
2022/08/31 02:31:53;;;;;;;4.18;2.90;;;17.70;99.90;;;;;;5117072;28;20039;-60
2022/08/31 02:34:19;;;;;;;3.17;2.53;;;17.70;99.90;;;;;;5116616;28;20124;-60
2022/08/31 02:36:45;;;;;;;3.78;2.65;;;17.80;99.90;;;;;;5117292;28;20137;-60
2022/08/31 02:39:12;;;;;;;3.17;2.45;;;17.90;99.90;;;;;;5116135;28;20426;-60
2022/08/31 02:41:38;;;;;;;5.43;2.40;;;17.80;99.90;;;;;;5116261;28;20039;-60
2022/08/31 02:44:04;;;;;;;2.55;2.25;;;17.90;99.90;;;;;;5116914;28;20024;-58
2022/08/31 02:46:30;;;;;;;3.08;2.60;;;17.80;99.90;;;;;;5120092;28;20466;-59
2022/08/31 02:49:15;;;;;;;2.60;2.35;;;17.70;99.90;;;;;;5121101;28;20067;-59
2022/08/31 02:51:42;;;;;;;5.63;2.75;;;17.90;99.90;;;;;;5120016;28;20100;-60
2022/08/31 02:54:09;;;;;;;3.05;2.40;;;18.00;99.90;;;;;;5120302;28;20039;-59
2022/08/31 02:56:36;;;;;;;3.15;2.40;;;17.80;99.90;;;;;;5120707;28;20024;-59
2022/08/31 02:59:02;;;;;;;2.80;2.50;;;17.90;99.90;;;;;;5119550;28;20043;-59
2022/08/31 03:01:28;;;;;;;3.75;2.42;;;17.90;99.90;;;;;;5120589;28;20295;-59
2022/08/31 03:03:55;;;;;;;2.50;2.30;;;17.80;99.90;;;;;;5119678;28;20114;-60
2022/08/31 03:06:22;;;;;;;2.63;2.40;;;17.80;99.90;;;;;;5119779;28;20050;-60
2022/08/31 03:08:49;;;;;;;5.32;3.45;;;17.70;99.90;;;;;;5120413;28;20280;-59
2022/08/31 03:11:17;;;;;;;3.45;2.97;;;17.70;99.90;;;;;;5120393;28;20024;-59
2022/08/31 03:13:42;;;;;;;3.58;2.60;;;17.70;99.90;;;;;;5119631;28;20058;-59
2022/08/31 03:16:10;;;;;;;3.92;2.70;;;17.70;99.90;;;;;;5102526;28;20074;-59
2022/08/31 03:18:36;;;;;;;5.10;2.85;;;17.50;99.90;;;;;;5120733;28;20383;-61
2022/08/31 03:21:02;;;;;;;4.25;2.55;;;17.50;99.90;;;;;;5120495;28;20118;-60
2022/08/31 03:23:28;;;;;;;3.42;2.90;;;17.30;99.90;;;;;;5119617;28;20046;-59
2022/08/31 03:25:54;;;;;;;4.85;2.60;;;17.30;99.90;;;;;;5119347;28;20399;-60
2022/08/31 03:28:21;;;;;;;3.25;2.65;;;17.30;99.90;;;;;;5120125;28;20050;-59
2022/08/31 03:31:09;;;;;;;4.25;3.00;;;17.20;99.90;;;;;;5119256;28;20277;-59
2022/08/31 03:33:36;;;;;;;3.25;2.85;;;17.20;99.90;;;;;;5119988;28;20023;-59
2022/08/31 03:36:04;;;;;;;3.20;2.90;;;17.20;99.90;;;;;;5119097;28;20179;-60
2022/08/31 03:38:31;;;;;;;3.90;2.90;;;17.20;99.90;;;;;;5118974;28;20303;-60
2022/08/31 03:40:57;;;;;;;3.08;2.78;;;17.10;99.90;;;;;;5119004;28;20020;-60
2022/08/31 03:43:23;;;;;;;4.88;2.58;;;17.20;99.90;;;;;;5118944;28;20034;-62
2022/08/31 03:45:50;;;;;;;3.08;2.80;;;17.10;99.90;;;;;;5118945;28;20110;-61
2022/08/31 03:48:17;;;;;;;4.55;2.67;;;17.20;99.90;;;;;;5119320;28;20365;-63
2022/08/31 03:50:44;;;;;;;5.38;2.80;;;17.20;99.90;;;;;;5118839;28;20088;-61
2022/08/31 03:53:17;;;;;;;3.00;2.72;;;17.20;99.90;;;;;;5119143;28;20303;-61
2022/08/31 03:55:43;;;;;;;4.10;3.28;;;17.30;99.90;;;;;;5101663;28;20031;-62
2022/08/31 03:58:10;;;;;;;3.17;2.60;;;17.30;99.90;;;;;;5118383;28;20319;-61
2022/08/31 04:00:37;;;;;;;4.07;2.92;;;17.40;99.90;;;;;;5118614;28;20076;-61
2022/08/31 04:03:10;;;;;;;3.08;2.85;;;17.30;99.90;;;;;;5118916;28;20027;-59
2022/08/31 04:05:55;;;;;;;2.83;2.63;;;17.20;99.90;;;;;;5119752;28;20112;-59
2022/08/31 04:08:41;;;;;;;5.38;2.80;;;17.20;99.90;;;;;;5097935;28;20078;-59
2022/08/31 04:11:26;;;;;;;3.13;2.75;;;17.10;99.90;;;;;;5119536;28;20078;-59
2022/08/31 04:14:11;;;;;;;6.43;2.85;;;17.00;99.90;;;;;;5119807;28;20034;-59
2022/08/31 04:16:39;;;;;;;4.30;3.10;;;17.00;99.90;;;;;;5119971;28;20098;-59
2022/08/31 04:19:06;;;;;;;4.53;3.05;;;17.00;99.90;;;;;;5118928;28;20319;-60
2022/08/31 04:21:36;;;;;;;3.33;2.90;;;17.00;99.90;;;;;;5118230;28;20365;-59
2022/08/31 04:24:03;;;;;;;3.17;2.88;;;16.90;99.90;;;;;;5118105;28;20028;-60
2022/08/31 04:26:34;;;;;;;3.20;2.90;;;16.90;99.90;;;;;;5119209;28;20301;-60
2022/08/31 04:29:01;;;;;;;4.38;3.15;;;16.80;99.90;;;;;;5118098;28;20039;-60
2022/08/31 04:31:28;;;;;;;3.17;2.88;;;16.70;99.90;;;;;;5118824;28;20050;-60
2022/08/31 04:33:56;;;;;;;5.75;3.20;;;16.70;99.90;;;;;;5117993;28;20300;-60
2022/08/31 04:36:24;;;;;;;4.20;2.95;;;16.70;99.90;;;;;;5118066;28;20083;-60
2022/08/31 04:38:54;;;;;;;3.17;2.85;;;16.70;99.90;;;;;;5117808;28;20310;-60
2022/08/31 04:41:23;;;;;;;3.55;3.20;;;16.70;99.90;;;;;;5117768;28;20062;-62
2022/08/31 04:43:53;;;;;;;3.63;3.30;;;16.70;99.90;;;;;;5117829;28;20042;-60
2022/08/31 04:46:20;;;;;;;4.97;3.22;;;16.80;99.90;;;;;;5118504;28;20036;-60
2022/08/31 04:48:46;;;;;;;3.67;3.38;;;16.80;99.90;;;;;;5117706;28;20114;-60
2022/08/31 04:51:16;;;;;;;4.40;3.08;;;16.70;99.90;;;;;;5117642;28;20126;-61
2022/08/31 04:53:43;;;;;;;5.13;3.58;;;16.70;99.90;;;;;;5119352;28;20024;-60
2022/08/31 04:56:15;;;;;;;4.25;3.25;;;16.60;99.90;;;;;;5117559;28;20035;-60
2022/08/31 04:58:43;;;;;;;;;;;16.60;99.90;;;;;;5117906;28;20063;-60
2022/08/31 05:01:11;;;;;;;4.18;3.47;;;16.60;99.90;;;;;;5117298;28;20007;-59
2022/08/31 05:04:12;;;;;;;3.22;2.92;;;16.70;99.90;;;;;;5117543;28;20311;-60
2022/08/31 05:06:40;;;;;;;3.75;3.40;;;16.60;99.90;;;;;;5118103;27;20027;-60
2022/08/31 05:09:10;;;;;;;4.10;3.28;;;16.50;99.90;;;;;;5116900;28;20118;-60
2022/08/31 05:11:41;;;;;;;7.45;3.50;;;16.50;99.90;;;;;;5117577;28;20023;-60
2022/08/31 05:14:07;;;;;;;4.07;3.53;;;16.50;99.90;;;;;;5117195;28;20307;-60
2022/08/31 05:16:38;;;;;;;7.25;3.42;;;16.50;99.90;;;;;;5117211;28;20023;-60
2022/08/31 05:19:05;;;;;;;5.25;3.72;;;16.60;99.90;;;;;;5118070;28;20032;-59
2022/08/31 05:21:34;;;;;;;4.80;3.33;;;16.50;99.90;;;;;;5117100;28;20020;-60
2022/08/31 05:24:10;;;;;;;8.02;3.60;;;16.60;99.90;;;;;;5117067;28;20028;-59
2022/08/31 05:26:47;;;;;;;3.92;3.10;;;16.70;99.90;;;;;;5116782;28;20023;-61
2022/08/31 05:29:14;;;;;;;7.97;3.35;;;16.70;99.90;;;;;;5117036;28;20332;-59
2022/08/31 05:31:42;;;;;;;4.45;3.20;;;16.70;99.90;;;;;;5117225;28;20280;-60
2022/08/31 05:34:11;;;;;;;5.50;3.67;;;16.70;99.90;;;;;;5116970;28;20054;-59
2022/08/31 05:36:38;;;;;;;6.93;3.28;;;16.80;99.90;;;;;;5116886;28;20027;-59
2022/08/31 05:39:08;;;;;;;4.78;3.20;;;16.80;99.90;;;;;;5116700;28;20307;-59
2022/08/31 05:41:34;;;;;;;7.65;3.15;;;16.90;99.90;;;;;;5116821;28;20119;-60
2022/08/31 05:44:03;;;;;;;7.10;3.40;;;16.90;99.90;;;;;;5116757;28;20032;-60
2022/08/31 05:46:29;;;;;;;5.50;2.85;;;16.80;99.90;;;;;;5116654;28;20023;-60
2022/08/31 05:48:56;;;;;;;4.45;3.30;;;16.90;99.90;;;;;;5116720;28;20046;-60
2022/08/31 05:51:22;;;;;;;5.13;2.95;;;16.80;99.90;;;;;;5117483;28;20295;-59
2022/08/31 05:53:48;;;;;;;5.20;3.05;;;16.90;99.90;;;;;;5117350;28;20050;-60
2022/08/31 05:56:18;;;;;;;4.15;2.65;;;16.80;99.90;;;;;;5116638;28;20032;-60
2022/08/31 05:58:46;;;;;;;3.38;2.90;;;16.90;99.90;;;;;;5116228;28;20043;-60
2022/08/31 06:01:31;;;;;;;5.07;2.85;;;17.00;99.90;;;;;;5116508;28;20303;-60
2022/08/31 06:04:12;;;;;;;5.30;2.70;;;16.90;99.90;;;;;;5117157;28;20031;-59
2022/08/31 06:06:38;;;;;;;2.90;2.70;;;16.90;99.90;;;;;;5116358;28;20111;-59
2022/08/31 06:09:06;;;;;;;4.20;2.95;;;17.00;99.90;;;;;;5116285;28;20490;-59
2022/08/31 06:11:33;;;;;;;3.13;2.50;;;17.00;99.90;;;;;;5116401;28;20096;-60
2022/08/31 06:14:01;;;;;;;3.83;2.70;;;17.00;99.90;;;;;;5116439;28;20035;-60
2022/08/31 06:16:29;;;;;;;3.28;2.47;;;17.20;99.90;;;;;;5116472;28;20031;-60
2022/08/31 06:18:57;;;;;;;2.90;2.50;;;17.20;99.90;;;;;;5116293;28;20042;-61
2022/08/31 06:21:28;;;;;;;2.72;2.47;;;17.30;99.90;;;;;;5120373;28;20411;-60
2022/08/31 06:23:56;;;;;;;3.15;2.50;;;17.30;99.90;;;;;;5121387;28;20040;-61
2022/08/31 06:26:24;;;;;;;2.60;2.40;;;17.40;99.90;;;;;;5120427;28;20115;-60
2022/08/31 06:28:53;;;;;;;3.90;2.38;;;17.30;99.90;;;;;;5120317;28;20024;-60
2022/08/31 06:31:32;;;;;;;2.67;2.47;;;17.40;99.90;;;;;;5120390;28;20028;-60
2022/08/31 06:33:59;;;;;;;5.10;2.47;;;17.40;99.90;;;;;;5120338;28;20047;-60
2022/08/31 06:36:48;;;;;;;8.00;2.60;;;17.60;99.90;;;;;;5101659;28;20402;-59
2022/08/31 06:39:34;;;;;;;3.38;2.53;;;17.50;99.90;;;;;;5099851;28;20296;-59
2022/08/31 06:42:15;;;;;;;12.20;2.75;;;17.50;99.90;;;;;;5120442;28;20399;-58
2022/08/31 06:45:02;;;;;;;6.22;2.55;;;17.50;99.90;;;;;;5113339;28;20036;-58
2022/08/31 06:47:40;;;;;;;6.28;2.70;;;17.50;99.90;;;;;;5120110;28;20047;-58
2022/08/31 06:50:08;;;;;;;4.88;2.72;;;17.40;99.90;;;;;;5120031;28;20035;-58
2022/08/31 06:52:34;;;;;;;4.00;2.33;;;17.50;99.90;;;;;;5119985;28;20259;-57
2022/08/31 06:55:11;;;;;;;2.78;2.30;;;17.50;99.90;;;;;;5104474;28;20379;-57
2022/08/31 06:58:03;;;;;;;3.47;2.38;;;17.50;99.90;;;;;;5112060;28;20039;-57
2022/08/31 07:01:14;;;;;;;3.80;2.47;;;17.60;99.90;;;;;;5110266;28;20122;-59
2022/08/31 07:04:10;;;;;;;4.13;2.50;;;17.70;99.90;;;;;;5113300;28;20023;-57
2022/08/31 07:06:41;;;;;;;2.80;2.25;;;17.70;99.90;;;;;;5120454;28;20024;-57
2022/08/31 07:09:12;;;;;;;3.40;2.20;;;17.70;99.90;;;;;;5119523;28;20340;-57
2022/08/31 07:11:42;;;;;;;3.90;2.25;;;17.70;99.90;;;;;;5120397;28;20028;-57
2022/08/31 07:14:11;;;;;;;3.67;2.25;;;17.80;99.90;;;;;;5119436;28;20088;-57
2022/08/31 07:16:38;;;;;;;3.25;2.33;;;18.00;99.90;;;;;;5120225;28;20028;-58
2022/08/31 07:19:07;;;;;;;3.03;2.13;;;18.10;99.90;;;;;;5119240;28;20031;-57
2022/08/31 07:21:49;;;;;;;3.83;2.35;;;18.20;99.90;;;;;;5120058;28;20058;-58
2022/08/31 07:24:21;;;;;;;8.77;2.45;;;18.40;99.90;;;;;;5119236;28;20389;-58
2022/08/31 07:26:52;;;;;;;4.18;2.35;;;18.40;99.90;;;;;;5119339;28;20399;-57
2022/08/31 07:29:23;;;;;;;4.40;2.13;;;18.40;99.90;;;;;;5119135;28;20028;-57
2022/08/31 07:31:49;;;;;;;3.22;2.20;;;18.30;99.90;;;;;;5118755;28;20035;-58
2022/08/31 07:34:26;;;;;;;2.50;2.15;;;18.30;99.90;;;;;;5119854;28;20031;-59
2022/08/31 07:42:43;;;;;;;2.95;2.10;;;18.50;99.90;;;;;;5118946;28;20296;-59
2022/08/31 07:45:20;;;;;;;2.10;1.90;;;18.60;99.90;;;;;;5118732;28;20372;-59
2022/08/31 07:47:51;;;;;;;2.10;1.90;;;18.70;99.90;;;;;;5119999;28;20059;-58
2022/08/31 07:50:19;;;;;;;4.47;2.33;;;18.80;99.90;;;;;;5118588;28;20101;-60
2022/08/31 07:53:23;;;;;;;2.60;2.40;;;18.90;99.90;;;;;;5119023;28;20023;-60
2022/08/31 07:55:59;;;;;;;3.35;2.15;;;19.10;99.90;;;;;;5118869;28;20032;-60
2022/08/31 07:58:38;;;;;;;3.80;1.90;;;19.10;99.90;;;;;;5118379;28;20101;-60
2022/08/31 08:01:05;;;;;;;2.33;1.90;;;19.30;99.90;;;;;;5102473;28;20028;-60
2022/08/31 08:03:31;;;;;;;3.72;2.28;;;19.50;99.90;;;;;;5118508;28;20024;-59
2022/08/31 08:06:16;;;;;;;3.03;2.10;;;19.50;99.90;;;;;;5120195;28;20101;-60
2022/08/31 08:09:06;;;;;;;2.25;2.00;;;19.10;99.90;;;;;;5118616;28;20030;-59
2022/08/31 08:11:57;;;;;;;3.33;2.15;;;19.30;99.90;;;;;;5116220;28;20039;-60
2022/08/31 08:14:57;;;;;;;3.20;2.00;;;19.40;99.90;;;;;;5099990;28;20033;-60
2022/08/31 08:17:34;;;;;;;2.97;2.55;;;19.40;99.90;;;;;;5103167;28;20299;-61
2022/08/31 08:20:07;;;;;;;3.50;2.20;;;19.50;99.90;;;;;;5118302;28;20035;-62
2022/08/31 08:22:37;;;;;;;3.78;2.42;;;19.60;99.90;;;;;;5118275;28;20111;-62
2022/08/31 08:25:38;;;;;;;5.55;2.15;;;19.60;99.90;;;;;;5097168;28;20047;-60
2022/08/31 08:28:29;;;;;;;3.40;2.20;;;19.40;99.90;;;;;;5116925;28;20035;-61
2022/08/31 08:31:00;;;;;;;3.20;1.88;;;19.80;99.90;;;;;;5117680;28;20111;-61
2022/08/31 08:33:28;;;;;;;5.75;2.20;;;19.80;99.90;;;;;;5118223;28;20058;-61
2022/08/31 08:36:01;;;;;;;3.00;2.20;;;20.10;99.90;;;;;;5117986;28;20042;-61
2022/08/31 08:38:29;;;;;;;2.08;1.88;;;20.10;99.90;;;;;;5118290;28;20024;-60
2022/08/31 08:40:59;;;;;;;5.13;2.17;;;19.90;99.90;;;;;;5117913;28;20044;-60
2022/08/31 08:43:34;;;;;;;5.35;2.13;;;20.20;99.90;;;;;;5116955;28;20115;-61
2022/08/31 08:46:03;;;;;;;5.70;2.28;;;20.30;99.90;;;;;;5117907;28;20275;-60
2022/08/31 08:48:36;;;;;;;5.95;2.22;;;20.40;99.90;;;;;;5117676;28;20114;-60
2022/08/31 08:51:12;;;;;;;3.50;2.17;;;20.50;99.90;;;;;;5117815;28;20024;-60
2022/08/31 08:54:09;;;;;;;4.63;2.25;;;20.70;99.90;;;;;;5103858;28;20070;-59
2022/08/31 08:56:40;;;;;;;2.85;2.58;;;20.80;99.90;;;;;;5117678;28;20351;-60
2022/08/31 08:59:08;;;;;;;7.63;2.58;;;20.90;99.90;;;;;;5117379;28;20131;-61
2022/08/31 09:01:36;;;;;;;4.63;1.98;;;20.80;99.90;;;;;;5117688;28;20031;-60
2022/08/31 09:04:25;;;;;;;5.35;2.05;;;20.80;99.90;;;;;;5117478;28;20099;-60
2022/08/31 09:07:30;;;;;;;4.68;2.03;;;20.90;99.90;;;;;;5117252;28;20092;-60
2022/08/31 09:10:26;;;;;;;5.13;1.88;;;21.20;99.90;;;;;;5085080;28;20035;-62
2022/08/31 09:13:18;;;;;;;3.15;1.90;;;21.50;99.90;;;;;;5118047;28;20080;-59
2022/08/31 09:15:48;;;;;;;;;;;21.70;99.90;;;;;;5118229;28;20380;-59
2022/08/31 09:18:33;;;;;;;3.50;2.00;;;21.80;99.90;;;;;;5117257;28;20254;-60
2022/08/31 09:21:20;;;;;;;3.63;2.05;;;21.80;99.90;;;;;;5117465;28;20063;-60
2022/08/31 09:24:00;;;;;;;3.53;2.20;;;21.80;99.90;;;;;;5117165;28;20031;-63
2022/08/31 09:26:30;;;;;;;3.13;2.42;;;21.80;99.90;;;;;;5117208;28;20028;-58
2022/08/31 09:29:28;;;;;;;6.28;1.90;;;22.00;99.90;;;;;;5117143;28;20299;-60
2022/08/31 09:32:06;;;;;;;4.20;2.17;;;22.10;99.90;;;;;;5117732;28;20280;-59
2022/08/31 09:34:38;;;;;;;2.85;1.80;;;22.30;99.90;;;;;;5117937;28;20039;-60
2022/08/31 09:40:53;;;;;;;3.20;2.38;;;22.20;99.90;;;;;;5117502;28;20045;-64
2022/08/31 10:51:37;;;;;;;2.60;2.33;;;26.50;99.90;;;;;;5096813;28;20077;-61
2022/08/31 10:54:05;;;;;;;5.38;2.53;;;27.70;99.90;;;;;;5096465;28;20028;-61
2022/08/31 10:56:57;;;;;;;2.97;2.33;;;27.50;99.90;;;;;;5096471;28;20016;-61
2022/08/31 10:59:36;;;;;;;3.75;1.45;;;28.40;99.90;;;;;;5096169;28;20423;-62
2022/08/31 11:02:31;;;;;;;5.18;2.53;;;28.80;99.90;;;;;;5096628;28;20056;-61
2022/08/31 11:05:16;;;;;;;3.85;2.38;;;29.80;99.90;;;;;;5096358;28;20292;-61
2022/08/31 11:07:50;;;;;;;6.32;2.53;;;29.70;99.90;;;;;;5100204;28;20028;-61
2022/08/31 11:10:37;;;;;;;3.83;2.40;;;30.00;99.90;;;;;;5099212;28;20016;-62
2022/08/31 11:13:13;;;;;;;4.60;2.50;;;29.60;99.90;;;;;;5099943;28;20020;-61
2022/08/31 11:15:58;;;;;;;3.38;2.22;;;29.40;99.90;;;;;;5099947;28;20043;-61
2022/08/31 11:18:38;;;;;;;7.97;2.45;;;30.20;99.90;;;;;;5100073;28;20384;-61
2022/08/31 11:21:35;;;;;;;2.83;2.63;;;29.70;99.90;;;;;;5099847;28;20047;-62
2022/08/31 11:24:24;;;;;;;3.58;2.25;;;30.20;99.90;;;;;;5100019;28;20060;-61
2022/08/31 11:27:24;;;;;;;2.90;2.45;;;31.10;99.90;;;;;;5099812;28;20063;-61
2022/08/31 11:29:59;;;;;;;3.70;1.95;;;31.10;99.90;;;;;;5077427;28;20052;-61
2022/08/31 11:32:28;;;;;;;7.22;2.75;;;31.10;99.90;;;;;;5099566;28;20020;-61
2022/08/31 11:34:59;;;;;;;8.05;2.30;;;30.90;99.90;;;;;;5099580;28;20291;-62
2022/08/31 11:37:54;;;;;;;3.10;2.38;;;31.70;99.90;;;;;;5099867;28;20035;-62
2022/08/31 11:40:40;;;;;;;5.88;2.70;;;32.60;99.60;;;;;;5099327;28;20048;-59
2022/08/31 11:43:13;;;;;;;3.08;2.13;;;32.00;99.20;;;;;;5092171;28;20040;-61
2022/08/31 11:45:40;;;;;;;4.68;2.60;;;32.70;98.40;;;;;;5099283;28;20032;-61
2022/08/31 11:48:27;;;;;;;4.82;2.60;;;32.10;97.30;;;;;;5099337;28;20090;-61
2022/08/31 11:50:53;;;;;;;8.38;2.53;;;31.60;98.30;;;;;;5099841;28;20032;-61
2022/08/31 11:53:50;;;;;;;7.95;2.72;;;32.10;97.20;;;;;;5099226;28;20459;-61
2022/08/31 11:56:39;;;;;;;5.68;2.70;;;31.80;97.00;;;;;;5097603;28;20059;-61
2022/08/31 11:59:27;;;;;;;8.38;3.03;;;31.10;98.30;;;;;;5099069;28;20032;-62
2022/08/31 12:01:56;;;;;;;4.03;2.92;;;30.60;98.10;;;;;;5081494;28;20051;-61
2022/08/31 12:04:44;;;;;;;4.57;3.30;;;29.60;99.90;;;;;;5098877;28;20024;-61
2022/08/31 12:07:15;;;;;;;5.47;2.72;;;29.50;99.90;;;;;;5099492;28;20039;-61
2022/08/31 12:09:47;;;;;;;5.10;2.78;;;31.20;99.30;;;;;;5098840;28;20070;-61
2022/08/31 12:12:29;;;;;;;5.93;3.65;;;32.30;96.50;;;;;;5098860;28;20032;-63
2022/08/31 12:15:23;;;;;;;12.57;3.80;;;32.10;95.20;;;;;;5099162;28;20031;-62
2022/08/31 12:18:04;;;;;;;12.25;5.55;;;31.10;96.80;;;;;;5098735;28;20023;-61
2022/08/31 12:23:42;;;;;;;;;;;31.40;97.40;;;;;;5098932;28;20021;-62
2022/08/31 12:26:13;;;;;;;8.45;3.65;;;31.70;95.70;;;;;;5098616;28;19943;-62
2022/08/31 12:29:05;;;;;;;7.03;3.42;;;30.60;96.70;;;;;;5097779;28;20039;-62
2022/08/31 12:31:35;;;;;;;6.10;3.78;;;30.60;96.50;;;;;;5098522;28;20093;-63
2022/08/31 12:34:06;;;;;;;6.22;3.92;;;31.30;96.50;;;;;;5098314;28;20043;-62
2022/08/31 12:36:36;;;;;;;4.60;3.40;;;31.90;94.70;;;;;;5098454;28;20133;-62
2022/08/31 12:39:24;;;;;;;8.65;3.42;;;31.60;95.20;;;;;;5098008;28;20040;-62
2022/08/31 12:41:53;;;;;;;7.50;3.30;;;32.40;94.70;;;;;;5098376;28;20291;-63
2022/08/31 12:44:24;;;;;;;6.30;3.28;;;33.60;92.70;;;;;;5098272;28;20028;-61
2022/08/31 12:46:56;;;;;;;3.65;3.22;;;33.20;91.90;;;;;;5098180;28;20119;-62
2022/08/31 12:49:46;;;;;;;10.25;3.03;;;32.40;93.10;;;;;;5098092;28;20036;-62
2022/08/31 12:52:22;;;;;;;6.28;3.05;;;32.40;92.40;;;;;;5098138;28;20038;-62
2022/08/31 12:55:16;;;;;;;7.88;3.20;;;31.80;93.20;;;;;;5098173;28;20052;-62
2022/08/31 12:57:45;;;;;;;3.17;2.58;;;32.10;93.40;;;;;;5098601;28;20039;-63
2022/08/31 13:00:26;;;;;;;3.95;3.03;;;33.00;92.20;;;;;;5097927;28;20422;-63
2022/08/31 13:03:14;;;;;;;5.65;3.00;;;33.40;90.90;;;;;;5098354;28;20117;-63
2022/08/31 13:05:40;;;;;;;4.90;2.92;;;33.80;90.60;;;;;;5097941;28;20027;-63
2022/08/31 13:08:21;;;;;;;6.10;2.67;;;34.50;87.70;;;;;;5097845;28;20420;-63
2022/08/31 13:10:47;;;;;;;7.27;3.20;;;33.00;89.80;;;;;;5097052;28;20024;-62
2022/08/31 13:13:23;;;;;;;11.05;3.05;;;32.40;90.60;;;;;;5097667;28;20043;-63
2022/08/31 13:15:52;;;;;;;4.07;3.00;;;32.80;90.80;;;;;;5097713;28;20085;-61
2022/08/31 13:18:22;;;;;;;4.60;2.90;;;32.80;89.90;;;;;;5097560;28;20040;-61
2022/08/31 13:20:55;;;;;;;8.15;3.15;;;32.00;90.30;;;;;;5098394;28;20028;-63
2022/08/31 13:23:27;;;;;;;4.97;3.50;;;33.40;90.00;;;;;;5097504;28;20031;-64
2022/08/31 13:26:01;;;;;;;;;;;33.10;88.40;;;;;;5097869;28;20075;-61
2022/08/31 13:28:29;;;;;;;8.60;3.10;;;31.80;90.40;;;;;;5097131;28;19908;-61
2022/08/31 13:31:10;;;;;;;6.10;2.97;;;32.50;90.20;;;;;;5096710;28;20028;-61
2022/08/31 13:33:41;;;;;;;2.80;2.33;;;32.10;90.90;;;;;;5097381;28;20084;-61
2022/08/31 13:36:08;;;;;;;8.73;3.15;;;33.00;90.20;;;;;;5097983;28;20352;-61
2022/08/31 13:38:42;;;;;;;5.07;2.92;;;33.40;87.90;;;;;;5097069;28;20365;-62
2022/08/31 13:41:36;;;;;;;5.40;2.70;;;33.70;87.60;;;;;;5097336;28;20035;-61
2022/08/31 13:44:07;;;;;;;4.22;2.70;;;34.10;86.80;;;;;;5095888;28;20372;-59
2022/08/31 13:46:37;;;;;;;3.73;2.63;;;35.50;82.50;;;;;;5096533;28;20109;-59
2022/08/31 13:49:06;;;;;;;8.02;3.00;;;35.90;81.00;;;;;;5096446;28;20296;-60
2022/08/31 13:51:44;;;;;;;7.07;2.85;;;34.30;79.30;;;;;;5097123;28;20032;-60
2022/08/31 13:54:23;;;;;;;5.97;2.85;;;34.10;82.30;;;;;;5096399;28;20049;-60
2022/08/31 13:56:54;;;;;;;4.70;2.38;;;34.20;82.50;;;;;;5097207;28;20063;-60
2022/08/31 13:59:28;;;;;;;4.55;3.00;;;35.40;80.40;;;;;;5097025;28;20071;-60
2022/08/31 14:02:03;;;;;;;5.22;2.90;;;35.40;77.60;;;;;;5097000;28;20024;-61
2022/08/31 14:04:48;;;;;;;2.85;2.53;;;33.80;80.20;;;;;;5096985;28;20020;-61
2022/08/31 14:07:22;;;;;;;5.40;2.30;;;33.40;82.10;;;;;;5097050;28;20032;-60
2022/08/31 14:09:49;;;;;;;4.15;2.65;;;35.80;78.50;;;;;;5097011;28;20104;-60
2022/08/31 14:12:34;;;;;;;6.68;2.58;;;36.00;75.50;;;;;;5097015;28;20398;-60
2022/08/31 14:15:34;;;;;;;2.50;2.25;;;36.90;74.80;;;;;;5096913;28;20044;-61
2022/08/31 14:18:17;;;;;;;5.07;2.65;;;36.70;73.30;;;;;;5093266;28;20304;-61
2022/08/31 14:20:48;;;;;;;5.70;2.78;;;36.10;73.20;;;;;;5096883;28;20023;-61
2022/08/31 14:23:17;;;;;;;6.18;3.20;;;34.90;74.50;;;;;;5096406;28;20040;-61
2022/08/31 14:25:42;;;;;;;5.57;2.90;;;34.40;77.00;;;;;;5096801;28;20078;-61
2022/08/31 14:28:09;;;;;;;4.60;2.88;;;33.80;77.70;;;;;;5096168;28;20032;-61
2022/08/31 14:30:36;;;;;;;5.10;2.50;;;34.40;76.00;;;;;;5096771;28;20028;-59
2022/08/31 14:33:01;;;;;;;5.95;2.50;;;36.10;74.20;;;;;;5097330;28;20384;-60
2022/08/31 14:35:27;;;;;;;5.18;2.53;;;36.60;72.30;;;;;;5096672;28;20036;-60
2022/08/31 14:37:53;;;;;;;7.57;2.90;;;37.90;69.10;;;;;;5095877;28;20028;-60
2022/08/31 14:40:19;;;;;;;6.78;2.65;;;36.80;68.40;;;;;;5097132;28;20304;-60
2022/08/31 14:42:45;;;;;;;3.90;2.70;;;35.30;71.00;;;;;;5100684;28;20020;-61